Bebe, Texas
Current Conditions -  °F | °C
As of 5:51 PM on Monday 22 Dec 2014 (Local Time) from KBAZ Reporting Station
Clear Clear  
Wind Chill: 62°   Ceiling: Unl
Heat Index: 62°   Visibility: 10mi
Dew Point: 55°   Wind: 8mph
Humidity: 78%   Direction: 190°S
Pressure: 29.62"   Gusts: NA
Location:  29.41°N, 97.64°W
Report Text: KBAZ 222351Z 19007KT 10SM CLR 17/13 A2962 RMK AO2 SLP025 T01670128 10228 20167 53001
Loading
Personal Weather Stations






























Interactive Weather Map New forecast layout! Learn more

10-Day Weather Forecast

Advertisements
Track Severe Weather on mobile